sensor_id;sensor_type;location;lat;lon;timestamp;P1;durP1;ratioP1;P2;durP2;ratioP2
325;SDS011;150;52.352;14.058;2023-03-01T00:01:52;7.80;;;5.68;;
325;SDS011;150;52.352;14.058;2023-03-01T00:04:19;12.82;;;7.25;;
325;SDS011;150;52.352;14.058;2023-03-01T00:06:46;12.35;;;6.15;;
325;SDS011;150;52.352;14.058;2023-03-01T00:09:12;10.20;;;7.15;;
325;SDS011;150;52.352;14.058;2023-03-01T00:11:40;11.38;;;7.60;;
325;SDS011;150;52.352;14.058;2023-03-01T00:14:07;12.03;;;7.90;;
325;SDS011;150;52.352;14.058;2023-03-01T00:16:34;13.63;;;8.73;;
325;SDS011;150;52.352;14.058;2023-03-01T00:19:04;13.37;;;8.03;;
325;SDS011;150;52.352;14.058;2023-03-01T00:21:32;12.50;;;7.10;;
325;SDS011;150;52.352;14.058;2023-03-01T00:24:00;15.40;;;7.82;;
325;SDS011;150;52.352;14.058;2023-03-01T00:26:29;9.70;;;7.03;;
325;SDS011;150;52.352;14.058;2023-03-01T00:28:56;11.30;;;7.85;;
325;SDS011;150;52.352;14.058;2023-03-01T00:31:25;10.23;;;6.85;;
325;SDS011;150;52.352;14.058;2023-03-01T00:33:54;13.18;;;6.93;;
325;SDS011;150;52.352;14.058;2023-03-01T00:36:24;10.77;;;7.20;;
325;SDS011;150;52.352;14.058;2023-03-01T00:38:53;9.30;;;6.67;;
325;SDS011;150;52.352;14.058;2023-03-01T00:41:20;14.70;;;8.88;;
325;SDS011;150;52.352;14.058;2023-03-01T00:43:48;11.55;;;7.32;;
325;SDS011;150;52.352;14.058;2023-03-01T00:46:18;14.40;;;8.23;;
325;SDS011;150;52.352;14.058;2023-03-01T00:48:47;10.82;;;7.65;;
325;SDS011;150;52.352;14.058;2023-03-01T00:51:14;12.77;;;8.43;;
325;SDS011;150;52.352;14.058;2023-03-01T00:53:44;12.40;;;7.68;;
325;SDS011;150;52.352;14.058;2023-03-01T00:56:11;13.25;;;8.27;;
325;SDS011;150;52.352;14.058;2023-03-01T00:58:40;12.25;;;8.48;;
325;SDS011;150;52.352;14.058;2023-03-01T01:01:08;12.68;;;8.05;;
325;SDS011;150;52.352;14.058;2023-03-01T01:03:42;11.37;;;7.47;;
325;SDS011;150;52.352;14.058;2023-03-01T01:06:12;12.00;;;7.75;;
325;SDS011;150;52.352;14.058;2023-03-01T01:08:40;9.32;;;7.32;;
325;SDS011;150;52.352;14.058;2023-03-01T01:11:09;11.07;;;8.20;;
325;SDS011;150;52.352;14.058;2023-03-01T01:13:36;12.10;;;7.60;;
325;SDS011;150;52.352;14.058;2023-03-01T01:16:03;12.53;;;8.00;;
325;SDS011;150;52.352;14.058;2023-03-01T01:18:31;11.40;;;8.23;;
325;SDS011;150;52.352;14.058;2023-03-01T01:21:02;16.05;;;10.05;;
325;SDS011;150;52.352;14.058;2023-03-01T01:23:30;12.80;;;9.15;;
325;SDS011;150;52.352;14.058;2023-03-01T01:25:57;14.65;;;8.77;;
325;SDS011;150;52.352;14.058;2023-03-01T01:28:30;11.95;;;7.35;;
325;SDS011;150;52.352;14.058;2023-03-01T01:33:25;13.73;;;8.50;;
325;SDS011;150;52.352;14.058;2023-03-01T01:35:52;12.65;;;7.60;;
325;SDS011;150;52.352;14.058;2023-03-01T01:38:29;10.50;;;7.67;;
325;SDS011;150;52.352;14.058;2023-03-01T01:41:07;10.60;;;7.60;;
325;SDS011;150;52.352;14.058;2023-03-01T01:43:43;14.05;;;8.50;;
325;SDS011;150;52.352;14.058;2023-03-01T01:46:17;9.43;;;7.80;;
325;SDS011;150;52.352;14.058;2023-03-01T01:48:52;12.73;;;7.72;;
325;SDS011;150;52.352;14.058;2023-03-01T01:51:30;9.98;;;7.22;;
325;SDS011;150;52.352;14.058;2023-03-01T01:54:06;10.85;;;6.38;;
325;SDS011;150;52.352;14.058;2023-03-01T01:56:37;12.40;;;7.60;;
325;SDS011;150;52.352;14.058;2023-03-01T01:59:09;8.20;;;6.05;;
325;SDS011;150;52.352;14.058;2023-03-01T02:01:39;11.98;;;7.53;;
325;SDS011;150;52.352;14.058;2023-03-01T02:04:08;11.95;;;8.35;;
325;SDS011;150;52.352;14.058;2023-03-01T02:06:38;12.40;;;8.60;;
325;SDS011;150;52.352;14.058;2023-03-01T02:09:11;11.18;;;8.60;;
325;SDS011;150;52.352;14.058;2023-03-01T02:11:40;13.13;;;8.68;;
325;SDS011;150;52.352;14.058;2023-03-01T02:14:09;16.17;;;8.82;;
325;SDS011;150;52.352;14.058;2023-03-01T02:16:36;10.00;;;8.10;;
325;SDS011;150;52.352;14.058;2023-03-01T02:19:03;15.05;;;7.70;;
325;SDS011;150;52.352;14.058;2023-03-01T02:21:37;12.48;;;8.20;;
325;SDS011;150;52.352;14.058;2023-03-01T02:24:14;15.13;;;8.27;;
325;SDS011;150;52.352;14.058;2023-03-01T02:26:56;10.88;;;7.78;;
325;SDS011;150;52.352;14.058;2023-03-01T02:29:30;9.73;;;7.00;;
325;SDS011;150;52.352;14.058;2023-03-01T02:31:57;10.10;;;7.07;;
325;SDS011;150;52.352;14.058;2023-03-01T02:34:26;12.85;;;7.25;;
325;SDS011;150;52.352;14.058;2023-03-01T02:37:00;10.73;;;7.32;;
325;SDS011;150;52.352;14.058;2023-03-01T02:39:38;9.23;;;6.32;;
325;SDS011;150;52.352;14.058;2023-03-01T02:42:16;10.77;;;7.15;;
325;SDS011;150;52.352;14.058;2023-03-01T02:44:49;8.30;;;6.43;;
325;SDS011;150;52.352;14.058;2023-03-01T02:47:16;13.25;;;7.65;;
325;SDS011;150;52.352;14.058;2023-03-01T02:49:43;9.13;;;7.00;;
325;SDS011;150;52.352;14.058;2023-03-01T02:52:22;9.32;;;6.88;;
325;SDS011;150;52.352;14.058;2023-03-01T02:54:57;8.85;;;6.20;;
325;SDS011;150;52.352;14.058;2023-03-01T02:57:26;8.38;;;7.38;;
325;SDS011;150;52.352;14.058;2023-03-01T03:00:03;8.13;;;7.05;;
325;SDS011;150;52.352;14.058;2023-03-01T03:02:35;9.50;;;6.55;;
325;SDS011;150;52.352;14.058;2023-03-01T03:05:03;9.63;;;6.57;;
325;SDS011;150;52.352;14.058;2023-03-01T03:07:40;11.10;;;6.25;;
325;SDS011;150;52.352;14.058;2023-03-01T03:10:13;10.63;;;7.82;;
325;SDS011;150;52.352;14.058;2023-03-01T03:12:44;6.82;;;6.00;;
325;SDS011;150;52.352;14.058;2023-03-01T03:15:16;11.88;;;7.75;;
325;SDS011;150;52.352;14.058;2023-03-01T03:17:43;9.50;;;6.47;;
325;SDS011;150;52.352;14.058;2023-03-01T03:20:11;8.32;;;5.80;;
325;SDS011;150;52.352;14.058;2023-03-01T03:22:44;9.65;;;7.30;;
325;SDS011;150;52.352;14.058;2023-03-01T03:25:10;11.07;;;6.57;;
325;SDS011;150;52.352;14.058;2023-03-01T03:27:44;10.27;;;6.90;;
325;SDS011;150;52.352;14.058;2023-03-01T03:30:12;10.65;;;7.38;;
325;SDS011;150;52.352;14.058;2023-03-01T03:32:42;11.93;;;6.72;;
325;SDS011;150;52.352;14.058;2023-03-01T03:35:23;9.75;;;6.55;;
325;SDS011;150;52.352;14.058;2023-03-01T03:37:51;6.57;;;4.85;;
325;SDS011;150;52.352;14.058;2023-03-01T03:40:28;8.90;;;5.70;;
325;SDS011;150;52.352;14.058;2023-03-01T03:42:57;11.80;;;7.35;;
325;SDS011;150;52.352;14.058;2023-03-01T03:45:24;10.40;;;7.10;;
325;SDS011;150;52.352;14.058;2023-03-01T03:48:07;8.15;;;6.15;;
325;SDS011;150;52.352;14.058;2023-03-01T03:50:50;11.18;;;7.10;;
325;SDS011;150;52.352;14.058;2023-03-01T03:53:22;11.75;;;7.25;;
325;SDS011;150;52.352;14.058;2023-03-01T03:55:51;9.80;;;7.10;;
325;SDS011;150;52.352;14.058;2023-03-01T03:58:21;8.23;;;6.63;;
325;SDS011;150;52.352;14.058;2023-03-01T04:00:50;10.48;;;6.93;;
325;SDS011;150;52.352;14.058;2023-03-01T04:03:19;8.95;;;5.50;;
325;SDS011;150;52.352;14.058;2023-03-01T04:05:51;10.03;;;6.63;;
325;SDS011;150;52.352;14.058;2023-03-01T04:08:24;7.72;;;5.40;;
325;SDS011;150;52.352;14.058;2023-03-01T04:10:56;9.35;;;5.60;;
325;SDS011;150;52.352;14.058;2023-03-01T04:13:52;9.68;;;5.85;;
325;SDS011;150;52.352;14.058;2023-03-01T04:16:27;12.65;;;7.40;;
325;SDS011;150;52.352;14.058;2023-03-01T04:18:55;7.82;;;6.38;;
325;SDS011;150;52.352;14.058;2023-03-01T04:21:36;10.63;;;6.05;;
325;SDS011;150;52.352;14.058;2023-03-01T04:24:06;8.68;;;6.00;;
325;SDS011;150;52.352;14.058;2023-03-01T04:26:34;12.10;;;6.00;;
325;SDS011;150;52.352;14.058;2023-03-01T04:29:10;9.90;;;6.50;;
325;SDS011;150;52.352;14.058;2023-03-01T04:31:36;11.57;;;6.47;;
325;SDS011;150;52.352;14.058;2023-03-01T04:34:07;8.30;;;6.53;;
325;SDS011;150;52.352;14.058;2023-03-01T04:36:34;9.70;;;6.53;;
325;SDS011;150;52.352;14.058;2023-03-01T04:39:01;9.10;;;5.80;;
325;SDS011;150;52.352;14.058;2023-03-01T04:41:39;9.95;;;6.80;;
325;SDS011;150;52.352;14.058;2023-03-01T04:44:10;8.05;;;6.45;;
325;SDS011;150;52.352;14.058;2023-03-01T04:46:37;7.25;;;4.90;;
325;SDS011;150;52.352;14.058;2023-03-01T04:49:06;10.55;;;7.40;;
325;SDS011;150;52.352;14.058;2023-03-01T04:51:41;9.88;;;7.28;;
325;SDS011;150;52.352;14.058;2023-03-01T04:54:08;11.00;;;7.07;;
325;SDS011;150;52.352;14.058;2023-03-01T04:56:35;8.18;;;6.47;;
325;SDS011;150;52.352;14.058;2023-03-01T04:59:02;9.10;;;6.57;;
325;SDS011;150;52.352;14.058;2023-03-01T05:01:30;10.75;;;6.88;;
325;SDS011;150;52.352;14.058;2023-03-01T05:03:57;8.50;;;5.78;;
325;SDS011;150;52.352;14.058;2023-03-01T05:06:29;10.90;;;6.50;;
325;SDS011;150;52.352;14.058;2023-03-01T05:08:55;11.15;;;7.60;;
325;SDS011;150;52.352;14.058;2023-03-01T05:11:22;12.07;;;7.97;;
325;SDS011;150;52.352;14.058;2023-03-01T05:13:49;11.65;;;8.38;;
325;SDS011;150;52.352;14.058;2023-03-01T05:16:19;10.85;;;9.15;;
325;SDS011;150;52.352;14.058;2023-03-01T05:18:48;12.82;;;9.05;;
325;SDS011;150;52.352;14.058;2023-03-01T05:21:16;11.23;;;8.70;;
325;SDS011;150;52.352;14.058;2023-03-01T05:23:44;11.40;;;8.00;;
325;SDS011;150;52.352;14.058;2023-03-01T05:26:12;8.57;;;7.57;;
325;SDS011;150;52.352;14.058;2023-03-01T05:28:39;10.70;;;7.03;;
325;SDS011;150;52.352;14.058;2023-03-01T05:31:06;10.13;;;7.20;;
325;SDS011;150;52.352;14.058;2023-03-01T05:33:35;11.73;;;7.85;;
325;SDS011;150;52.352;14.058;2023-03-01T05:36:02;10.27;;;8.32;;
325;SDS011;150;52.352;14.058;2023-03-01T05:38:29;10.18;;;7.88;;
325;SDS011;150;52.352;14.058;2023-03-01T05:40:57;15.90;;;10.52;;
325;SDS011;150;52.352;14.058;2023-03-01T05:43:24;11.43;;;8.88;;
325;SDS011;150;52.352;14.058;2023-03-01T05:45:51;17.13;;;9.02;;
325;SDS011;150;52.352;14.058;2023-03-01T05:48:17;10.90;;;8.35;;
325;SDS011;150;52.352;14.058;2023-03-01T05:50:44;11.68;;;9.43;;
325;SDS011;150;52.352;14.058;2023-03-01T05:53:13;13.32;;;11.18;;
325;SDS011;150;52.352;14.058;2023-03-01T05:55:41;16.50;;;10.38;;
325;SDS011;150;52.352;14.058;2023-03-01T05:58:11;13.30;;;9.68;;
325;SDS011;150;52.352;14.058;2023-03-01T06:00:39;11.70;;;9.10;;
325;SDS011;150;52.352;14.058;2023-03-01T06:03:08;13.02;;;8.38;;
325;SDS011;150;52.352;14.058;2023-03-01T06:05:38;10.63;;;8.57;;
325;SDS011;150;52.352;14.058;2023-03-01T06:08:08;7.43;;;6.82;;
325;SDS011;150;52.352;14.058;2023-03-01T06:10:36;8.13;;;6.40;;
325;SDS011;150;52.352;14.058;2023-03-01T06:13:03;8.85;;;6.97;;
325;SDS011;150;52.352;14.058;2023-03-01T06:15:31;9.75;;;6.63;;
325;SDS011;150;52.352;14.058;2023-03-01T06:17:58;8.23;;;6.40;;
325;SDS011;150;52.352;14.058;2023-03-01T06:20:25;9.30;;;4.90;;
325;SDS011;150;52.352;14.058;2023-03-01T06:22:53;10.65;;;6.93;;
325;SDS011;150;52.352;14.058;2023-03-01T06:25:20;8.88;;;5.70;;
325;SDS011;150;52.352;14.058;2023-03-01T06:27:48;9.05;;;5.50;;
325;SDS011;150;52.352;14.058;2023-03-01T06:30:15;11.57;;;7.32;;
325;SDS011;150;52.352;14.058;2023-03-01T06:32:44;8.70;;;6.60;;
325;SDS011;150;52.352;14.058;2023-03-01T06:35:11;10.38;;;6.30;;
325;SDS011;150;52.352;14.058;2023-03-01T06:37:42;10.60;;;6.82;;
325;SDS011;150;52.352;14.058;2023-03-01T06:40:09;8.48;;;6.30;;
325;SDS011;150;52.352;14.058;2023-03-01T06:42:39;12.88;;;6.97;;
325;SDS011;150;52.352;14.058;2023-03-01T06:45:07;14.02;;;8.02;;
325;SDS011;150;52.352;14.058;2023-03-01T06:47:35;7.80;;;6.38;;
325;SDS011;150;52.352;14.058;2023-03-01T06:50:03;12.00;;;6.28;;
325;SDS011;150;52.352;14.058;2023-03-01T06:52:30;9.40;;;5.82;;
325;SDS011;150;52.352;14.058;2023-03-01T06:54:57;9.05;;;6.63;;
325;SDS011;150;52.352;14.058;2023-03-01T06:57:24;11.18;;;6.60;;
325;SDS011;150;52.352;14.058;2023-03-01T06:59:50;8.55;;;6.32;;
325;SDS011;150;52.352;14.058;2023-03-01T07:02:17;10.63;;;7.20;;
325;SDS011;150;52.352;14.058;2023-03-01T07:04:44;13.25;;;7.35;;
325;SDS011;150;52.352;14.058;2023-03-01T07:07:12;9.95;;;6.57;;
325;SDS011;150;52.352;14.058;2023-03-01T07:09:38;7.40;;;6.07;;
325;SDS011;150;52.352;14.058;2023-03-01T07:12:05;7.85;;;6.20;;
325;SDS011;150;52.352;14.058;2023-03-01T07:14:32;11.15;;;6.97;;
325;SDS011;150;52.352;14.058;2023-03-01T07:16:59;9.48;;;6.50;;
325;SDS011;150;52.352;14.058;2023-03-01T07:19:26;8.30;;;6.30;;
325;SDS011;150;52.352;14.058;2023-03-01T07:21:55;14.63;;;8.13;;
325;SDS011;150;52.352;14.058;2023-03-01T07:24:23;13.10;;;7.50;;
325;SDS011;150;52.352;14.058;2023-03-01T07:26:50;9.97;;;7.27;;
325;SDS011;150;52.352;14.058;2023-03-01T07:29:18;10.43;;;7.30;;
325;SDS011;150;52.352;14.058;2023-03-01T07:31:45;9.15;;;6.80;;
325;SDS011;150;52.352;14.058;2023-03-01T07:34:11;9.85;;;6.45;;
325;SDS011;150;52.352;14.058;2023-03-01T07:36:38;6.70;;;5.30;;
325;SDS011;150;52.352;14.058;2023-03-01T07:39:08;7.78;;;6.43;;
325;SDS011;150;52.352;14.058;2023-03-01T07:41:37;9.90;;;6.03;;
325;SDS011;150;52.352;14.058;2023-03-01T07:44:03;9.32;;;6.80;;
325;SDS011;150;52.352;14.058;2023-03-01T07:46:30;6.00;;;5.63;;
325;SDS011;150;52.352;14.058;2023-03-01T07:48:57;6.85;;;6.45;;
325;SDS011;150;52.352;14.058;2023-03-01T07:51:24;13.60;;;7.60;;
325;SDS011;150;52.352;14.058;2023-03-01T07:53:50;10.50;;;6.47;;
325;SDS011;150;52.352;14.058;2023-03-01T07:56:17;15.00;;;9.32;;
325;SDS011;150;52.352;14.058;2023-03-01T07:58:45;15.20;;;10.60;;
325;SDS011;150;52.352;14.058;2023-03-01T08:01:13;18.08;;;11.40;;
325;SDS011;150;52.352;14.058;2023-03-01T08:03:41;19.42;;;11.30;;
325;SDS011;150;52.352;14.058;2023-03-01T08:06:09;16.33;;;11.00;;
325;SDS011;150;52.352;14.058;2023-03-01T08:08:37;19.85;;;11.65;;
325;SDS011;150;52.352;14.058;2023-03-01T08:11:05;19.08;;;11.38;;
325;SDS011;150;52.352;14.058;2023-03-01T08:13:32;12.32;;;7.75;;
325;SDS011;150;52.352;14.058;2023-03-01T08:16:02;12.10;;;8.20;;
325;SDS011;150;52.352;14.058;2023-03-01T08:18:30;9.20;;;7.07;;
325;SDS011;150;52.352;14.058;2023-03-01T08:21:00;8.73;;;7.10;;
325;SDS011;150;52.352;14.058;2023-03-01T08:23:27;10.68;;;8.00;;
325;SDS011;150;52.352;14.058;2023-03-01T08:25:55;11.47;;;7.80;;
325;SDS011;150;52.352;14.058;2023-03-01T08:28:28;9.52;;;6.97;;
325;SDS011;150;52.352;14.058;2023-03-01T08:30:55;10.80;;;8.40;;
325;SDS011;150;52.352;14.058;2023-03-01T08:33:32;8.30;;;6.70;;
325;SDS011;150;52.352;14.058;2023-03-01T08:36:04;9.85;;;8.10;;
325;SDS011;150;52.352;14.058;2023-03-01T08:38:32;14.25;;;10.60;;
325;SDS011;150;52.352;14.058;2023-03-01T08:40:59;10.63;;;8.43;;
325;SDS011;150;52.352;14.058;2023-03-01T08:43:29;14.85;;;8.98;;
325;SDS011;150;52.352;14.058;2023-03-01T08:45:56;9.80;;;6.55;;
325;SDS011;150;52.352;14.058;2023-03-01T08:48:23;9.18;;;6.00;;
325;SDS011;150;52.352;14.058;2023-03-01T08:50:51;8.68;;;6.05;;
325;SDS011;150;52.352;14.058;2023-03-01T08:53:18;10.80;;;6.15;;
325;SDS011;150;52.352;14.058;2023-03-01T08:55:44;10.02;;;5.80;;
325;SDS011;150;52.352;14.058;2023-03-01T08:58:15;6.43;;;4.97;;
325;SDS011;150;52.352;14.058;2023-03-01T09:00:41;9.57;;;5.95;;
325;SDS011;150;52.352;14.058;2023-03-01T09:03:08;9.57;;;5.83;;
325;SDS011;150;52.352;14.058;2023-03-01T09:05:35;6.32;;;5.30;;
325;SDS011;150;52.352;14.058;2023-03-01T09:08:05;8.98;;;5.93;;
325;SDS011;150;52.352;14.058;2023-03-01T09:10:38;9.03;;;5.70;;
325;SDS011;150;52.352;14.058;2023-03-01T09:13:05;10.70;;;6.45;;
325;SDS011;150;52.352;14.058;2023-03-01T09:15:31;8.93;;;6.13;;
325;SDS011;150;52.352;14.058;2023-03-01T09:18:04;9.47;;;5.80;;
325;SDS011;150;52.352;14.058;2023-03-01T09:20:31;9.13;;;5.80;;
325;SDS011;150;52.352;14.058;2023-03-01T09:22:58;8.18;;;5.03;;
325;SDS011;150;52.352;14.058;2023-03-01T09:25:31;8.48;;;5.55;;
325;SDS011;150;52.352;14.058;2023-03-01T09:28:00;7.82;;;6.15;;
325;SDS011;150;52.352;14.058;2023-03-01T09:30:35;10.35;;;5.72;;
325;SDS011;150;52.352;14.058;2023-03-01T09:33:12;6.00;;;5.20;;
325;SDS011;150;52.352;14.058;2023-03-01T09:35:39;9.73;;;5.80;;
325;SDS011;150;52.352;14.058;2023-03-01T09:38:12;6.78;;;5.05;;
325;SDS011;150;52.352;14.058;2023-03-01T09:43:37;6.53;;;4.10;;
325;SDS011;150;52.352;14.058;2023-03-01T09:46:12;6.30;;;4.23;;
325;SDS011;150;52.352;14.058;2023-03-01T09:48:42;6.87;;;3.90;;
325;SDS011;150;52.352;14.058;2023-03-01T09:51:12;4.78;;;3.40;;
325;SDS011;150;52.352;14.058;2023-03-01T09:53:43;7.38;;;4.00;;
325;SDS011;150;52.352;14.058;2023-03-01T09:56:13;6.40;;;3.55;;
325;SDS011;150;52.352;14.058;2023-03-01T09:58:47;5.43;;;3.10;;
325;SDS011;150;52.352;14.058;2023-03-01T10:01:23;5.10;;;3.40;;
325;SDS011;150;52.352;14.058;2023-03-01T10:04:02;6.03;;;3.17;;
325;SDS011;150;52.352;14.058;2023-03-01T10:06:48;6.70;;;4.47;;
325;SDS011;150;52.352;14.058;2023-03-01T10:09:20;4.38;;;2.60;;
325;SDS011;150;52.352;14.058;2023-03-01T10:11:52;6.88;;;2.70;;
325;SDS011;150;52.352;14.058;2023-03-01T10:14:23;4.60;;;2.60;;
325;SDS011;150;52.352;14.058;2023-03-01T10:16:57;5.68;;;3.58;;
325;SDS011;150;52.352;14.058;2023-03-01T10:19:36;5.53;;;3.30;;
325;SDS011;150;52.352;14.058;2023-03-01T10:22:10;4.57;;;2.92;;
325;SDS011;150;52.352;14.058;2023-03-01T10:24:41;4.30;;;2.80;;
325;SDS011;150;52.352;14.058;2023-03-01T10:27:14;5.88;;;3.03;;
325;SDS011;150;52.352;14.058;2023-03-01T10:29:50;5.40;;;3.40;;
325;SDS011;150;52.352;14.058;2023-03-01T10:32:25;6.67;;;3.30;;
325;SDS011;150;52.352;14.058;2023-03-01T10:34:58;5.15;;;3.13;;
325;SDS011;150;52.352;14.058;2023-03-01T10:37:25;4.20;;;3.17;;
325;SDS011;150;52.352;14.058;2023-03-01T10:39:56;6.10;;;3.30;;
325;SDS011;150;52.352;14.058;2023-03-01T10:42:29;5.67;;;3.77;;
325;SDS011;150;52.352;14.058;2023-03-01T10:44:57;4.80;;;3.00;;
325;SDS011;150;52.352;14.058;2023-03-01T10:47:40;4.27;;;3.20;;
325;SDS011;150;52.352;14.058;2023-03-01T10:50:17;3.90;;;2.40;;
325;SDS011;150;52.352;14.058;2023-03-01T10:52:55;5.10;;;2.78;;
325;SDS011;150;52.352;14.058;2023-03-01T10:55:24;5.00;;;3.25;;
325;SDS011;150;52.352;14.058;2023-03-01T10:58:07;5.13;;;3.20;;
325;SDS011;150;52.352;14.058;2023-03-01T11:00:45;4.00;;;2.63;;
325;SDS011;150;52.352;14.058;2023-03-01T11:03:15;4.68;;;2.60;;
325;SDS011;150;52.352;14.058;2023-03-01T11:05:52;4.30;;;2.80;;
325;SDS011;150;52.352;14.058;2023-03-01T11:08:32;4.15;;;2.55;;
325;SDS011;150;52.352;14.058;2023-03-01T11:11:18;4.10;;;2.70;;
325;SDS011;150;52.352;14.058;2023-03-01T11:13:53;5.13;;;3.10;;
325;SDS011;150;52.352;14.058;2023-03-01T11:16:30;5.20;;;2.90;;
325;SDS011;150;52.352;14.058;2023-03-01T11:19:01;3.58;;;2.78;;
325;SDS011;150;52.352;14.058;2023-03-01T11:21:41;3.90;;;2.50;;
325;SDS011;150;52.352;14.058;2023-03-01T11:24:11;3.73;;;2.40;;
325;SDS011;150;52.352;14.058;2023-03-01T11:26:40;4.00;;;2.70;;
325;SDS011;150;52.352;14.058;2023-03-01T11:29:15;2.42;;;1.60;;
325;SDS011;150;52.352;14.058;2023-03-01T11:31:56;2.60;;;2.15;;
325;SDS011;150;52.352;14.058;2023-03-01T11:34:29;2.55;;;1.90;;
325;SDS011;150;52.352;14.058;2023-03-01T11:37:08;4.43;;;2.40;;
325;SDS011;150;52.352;14.058;2023-03-01T11:39:43;3.40;;;2.53;;
325;SDS011;150;52.352;14.058;2023-03-01T11:42:17;2.40;;;1.60;;
325;SDS011;150;52.352;14.058;2023-03-01T11:44:48;3.53;;;2.42;;
325;SDS011;150;52.352;14.058;2023-03-01T11:47:23;3.20;;;2.47;;
325;SDS011;150;52.352;14.058;2023-03-01T11:50:01;3.42;;;2.00;;
325;SDS011;150;52.352;14.058;2023-03-01T11:52:54;3.15;;;2.08;;
325;SDS011;150;52.352;14.058;2023-03-01T11:55:49;3.33;;;1.80;;
325;SDS011;150;52.352;14.058;2023-03-01T11:58:35;4.67;;;1.93;;
325;SDS011;150;52.352;14.058;2023-03-01T12:01:21;2.58;;;1.95;;
325;SDS011;150;52.352;14.058;2023-03-01T12:04:03;2.70;;;1.77;;
325;SDS011;150;52.352;14.058;2023-03-01T12:06:56;2.30;;;1.60;;
325;SDS011;150;52.352;14.058;2023-03-01T12:12:27;2.10;;;1.27;;
325;SDS011;150;52.352;14.058;2023-03-01T12:15:17;3.10;;;1.88;;
325;SDS011;150;52.352;14.058;2023-03-01T12:21:01;4.43;;;2.13;;
325;SDS011;150;52.352;14.058;2023-03-01T12:23:41;4.30;;;2.08;;
325;SDS011;150;52.352;14.058;2023-03-01T12:26:30;3.63;;;2.40;;
325;SDS011;150;52.352;14.058;2023-03-01T12:29:14;5.13;;;1.90;;
325;SDS011;150;52.352;14.058;2023-03-01T12:35:08;3.20;;;2.10;;
325;SDS011;150;52.352;14.058;2023-03-01T12:37:55;3.03;;;2.13;;
325;SDS011;150;52.352;14.058;2023-03-01T12:44:01;3.13;;;2.53;;
325;SDS011;150;52.352;14.058;2023-03-01T12:46:45;2.60;;;2.17;;
325;SDS011;150;52.352;14.058;2023-03-01T12:49:21;4.07;;;1.80;;
325;SDS011;150;52.352;14.058;2023-03-01T12:51:53;2.47;;;2.25;;
325;SDS011;150;52.352;14.058;2023-03-01T12:54:29;3.78;;;2.33;;
325;SDS011;150;52.352;14.058;2023-03-01T12:56:59;5.13;;;2.53;;
325;SDS011;150;52.352;14.058;2023-03-01T12:59:38;2.55;;;2.08;;
325;SDS011;150;52.352;14.058;2023-03-01T13:02:11;3.78;;;2.22;;
325;SDS011;150;52.352;14.058;2023-03-01T13:04:50;3.60;;;2.10;;
325;SDS011;150;52.352;14.058;2023-03-01T13:07:29;4.22;;;2.30;;
325;SDS011;150;52.352;14.058;2023-03-01T13:10:13;3.78;;;2.25;;
325;SDS011;150;52.352;14.058;2023-03-01T13:12:50;4.00;;;2.30;;
325;SDS011;150;52.352;14.058;2023-03-01T13:15:30;3.80;;;2.33;;
325;SDS011;150;52.352;14.058;2023-03-01T13:17:59;3.20;;;2.17;;
325;SDS011;150;52.352;14.058;2023-03-01T13:20:27;7.03;;;5.43;;
325;SDS011;150;52.352;14.058;2023-03-01T13:23:11;5.03;;;3.70;;
325;SDS011;150;52.352;14.058;2023-03-01T13:26:05;4.60;;;2.30;;
325;SDS011;150;52.352;14.058;2023-03-01T13:28:41;3.67;;;1.85;;
325;SDS011;150;52.352;14.058;2023-03-01T13:37:51;1.90;;;1.20;;
325;SDS011;150;52.352;14.058;2023-03-01T13:43:42;3.20;;;1.92;;
325;SDS011;150;52.352;14.058;2023-03-01T13:46:22;3.38;;;1.75;;
325;SDS011;150;52.352;14.058;2023-03-01T13:49:02;2.20;;;1.70;;
325;SDS011;150;52.352;14.058;2023-03-01T13:51:35;7.00;;;1.47;;
325;SDS011;150;52.352;14.058;2023-03-01T13:54:03;3.15;;;1.60;;
325;SDS011;150;52.352;14.058;2023-03-01T13:56:39;1.70;;;1.10;;
325;SDS011;150;52.352;14.058;2023-03-01T13:59:21;1.98;;;1.30;;
325;SDS011;150;52.352;14.058;2023-03-01T14:02:00;2.22;;;1.67;;
325;SDS011;150;52.352;14.058;2023-03-01T14:04:33;5.60;;;2.17;;
325;SDS011;150;52.352;14.058;2023-03-01T14:09:58;2.80;;;2.20;;
325;SDS011;150;52.352;14.058;2023-03-01T14:12:35;3.05;;;1.80;;
325;SDS011;150;52.352;14.058;2023-03-01T14:15:14;3.15;;;1.83;;
325;SDS011;150;52.352;14.058;2023-03-01T14:17:53;3.75;;;1.55;;
325;SDS011;150;52.352;14.058;2023-03-01T14:20:40;2.42;;;1.80;;
325;SDS011;150;52.352;14.058;2023-03-01T14:23:17;3.60;;;1.70;;
325;SDS011;150;52.352;14.058;2023-03-01T14:26:10;3.25;;;2.00;;
325;SDS011;150;52.352;14.058;2023-03-01T14:29:05;3.60;;;1.73;;
325;SDS011;150;52.352;14.058;2023-03-01T14:31:35;2.47;;;1.63;;
325;SDS011;150;52.352;14.058;2023-03-01T14:36:56;2.90;;;1.40;;
325;SDS011;150;52.352;14.058;2023-03-01T14:39:35;2.55;;;1.45;;
325;SDS011;150;52.352;14.058;2023-03-01T14:42:12;2.47;;;1.45;;
325;SDS011;150;52.352;14.058;2023-03-01T14:44:53;2.70;;;1.65;;
325;SDS011;150;52.352;14.058;2023-03-01T14:47:31;3.15;;;1.60;;
325;SDS011;150;52.352;14.058;2023-03-01T14:50:09;2.30;;;1.50;;
325;SDS011;150;52.352;14.058;2023-03-01T14:52:52;3.03;;;1.63;;
325;SDS011;150;52.352;14.058;2023-03-01T14:55:33;2.40;;;1.50;;
325;SDS011;150;52.352;14.058;2023-03-01T14:58:10;2.00;;;1.50;;
325;SDS011;150;52.352;14.058;2023-03-01T15:00:52;2.70;;;1.40;;
325;SDS011;150;52.352;14.058;2023-03-01T15:03:32;2.00;;;1.20;;
325;SDS011;150;52.352;14.058;2023-03-01T15:06:10;5.25;;;1.98;;
325;SDS011;150;52.352;14.058;2023-03-01T15:08:49;3.53;;;1.60;;
325;SDS011;150;52.352;14.058;2023-03-01T15:11:29;2.10;;;1.20;;
325;SDS011;150;52.352;14.058;2023-03-01T15:17:01;3.58;;;1.58;;
325;SDS011;150;52.352;14.058;2023-03-01T15:19:42;4.05;;;1.92;;
325;SDS011;150;52.352;14.058;2023-03-01T15:22:21;3.40;;;2.40;;
325;SDS011;150;52.352;14.058;2023-03-01T15:24:56;3.28;;;2.17;;
325;SDS011;150;52.352;14.058;2023-03-01T15:27:24;2.70;;;1.60;;
325;SDS011;150;52.352;14.058;2023-03-01T15:46:52;4.93;;;2.20;;
325;SDS011;150;52.352;14.058;2023-03-01T15:49:35;4.53;;;2.72;;
325;SDS011;150;52.352;14.058;2023-03-01T15:52:19;2.97;;;2.03;;
325;SDS011;150;52.352;14.058;2023-03-01T15:55:26;3.28;;;1.90;;
325;SDS011;150;52.352;14.058;2023-03-01T15:58:24;7.40;;;4.93;;
325;SDS011;150;52.352;14.058;2023-03-01T16:03:46;5.00;;;3.45;;
325;SDS011;150;52.352;14.058;2023-03-01T16:06:21;3.78;;;2.38;;
325;SDS011;150;52.352;14.058;2023-03-01T16:08:59;3.50;;;2.20;;
325;SDS011;150;52.352;14.058;2023-03-01T16:11:27;3.27;;;2.67;;
325;SDS011;150;52.352;14.058;2023-03-01T16:16:45;3.38;;;2.42;;
325;SDS011;150;52.352;14.058;2023-03-01T16:19:21;3.78;;;2.38;;
325;SDS011;150;52.352;14.058;2023-03-01T16:21:48;5.15;;;3.05;;
325;SDS011;150;52.352;14.058;2023-03-01T16:24:28;4.55;;;3.13;;
325;SDS011;150;52.352;14.058;2023-03-01T16:27:05;7.28;;;3.63;;
325;SDS011;150;52.352;14.058;2023-03-01T16:29:41;4.85;;;2.78;;
325;SDS011;150;52.352;14.058;2023-03-01T16:32:08;5.82;;;2.95;;
325;SDS011;150;52.352;14.058;2023-03-01T16:34:51;4.40;;;3.17;;
325;SDS011;150;52.352;14.058;2023-03-01T16:37:46;4.45;;;2.70;;
325;SDS011;150;52.352;14.058;2023-03-01T16:43:20;18.77;;;9.80;;
325;SDS011;150;52.352;14.058;2023-03-01T16:46:02;8.05;;;5.13;;
325;SDS011;150;52.352;14.058;2023-03-01T16:48:45;3.85;;;3.05;;
325;SDS011;150;52.352;14.058;2023-03-01T16:51:33;4.15;;;3.40;;
325;SDS011;150;52.352;14.058;2023-03-01T16:54:03;4.90;;;3.60;;
325;SDS011;150;52.352;14.058;2023-03-01T16:56:38;6.95;;;3.80;;
325;SDS011;150;52.352;14.058;2023-03-01T16:59:13;7.28;;;4.15;;
325;SDS011;150;52.352;14.058;2023-03-01T17:01:40;7.22;;;6.03;;